sensor_id;sensor_type;location;lat;lon;timestamp;P1;durP1;ratioP1;P2;durP2;ratioP2
30888;SDS011;51092;50.874;7.024;2023-01-01T00:00:28;17.45;;;10.02;;
30888;SDS011;51092;50.874;7.024;2023-01-01T00:01:30;18.88;;;10.73;;
30888;SDS011;51092;50.874;7.024;2023-01-01T00:02:39;19.33;;;10.55;;
30888;SDS011;51092;50.874;7.024;2023-01-01T00:03:43;17.38;;;10.82;;
30888;SDS011;51092;50.874;7.024;2023-01-01T00:04:49;22.50;;;11.20;;
30888;SDS011;51092;50.874;7.024;2023-01-01T00:05:50;14.77;;;10.10;;
30888;SDS011;51092;50.874;7.024;2023-01-01T00:06:51;19.77;;;12.07;;
30888;SDS011;51092;50.874;7.024;2023-01-01T00:07:53;20.20;;;10.90;;
30888;SDS011;51092;50.874;7.024;2023-01-01T00:08:56;17.70;;;10.90;;
30888;SDS011;51092;50.874;7.024;2023-01-01T00:10:12;23.10;;;11.45;;
30888;SDS011;51092;50.874;7.024;2023-01-01T00:11:28;18.80;;;10.70;;
30888;SDS011;51092;50.874;7.024;2023-01-01T00:12:31;15.07;;;9.90;;
30888;SDS011;51092;50.874;7.024;2023-01-01T00:13:36;17.45;;;9.90;;
30888;SDS011;51092;50.874;7.024;2023-01-01T00:14:42;18.60;;;9.90;;
30888;SDS011;51092;50.874;7.024;2023-01-01T00:15:44;15.57;;;9.52;;
30888;SDS011;51092;50.874;7.024;2023-01-01T00:16:46;21.50;;;9.95;;
30888;SDS011;51092;50.874;7.024;2023-01-01T00:17:49;18.65;;;10.10;;
30888;SDS011;51092;50.874;7.024;2023-01-01T00:18:52;16.48;;;9.57;;
30888;SDS011;51092;50.874;7.024;2023-01-01T00:19:54;16.45;;;9.40;;
30888;SDS011;51092;50.874;7.024;2023-01-01T00:21:00;13.88;;;9.00;;
30888;SDS011;51092;50.874;7.024;2023-01-01T00:22:03;10.50;;;7.60;;
30888;SDS011;51092;50.874;7.024;2023-01-01T00:23:06;16.48;;;8.25;;
30888;SDS011;51092;50.874;7.024;2023-01-01T00:24:08;14.75;;;8.38;;
30888;SDS011;51092;50.874;7.024;2023-01-01T00:25:10;13.65;;;8.13;;
30888;SDS011;51092;50.874;7.024;2023-01-01T00:26:15;14.35;;;7.68;;
30888;SDS011;51092;50.874;7.024;2023-01-01T00:27:17;12.32;;;6.68;;
30888;SDS011;51092;50.874;7.024;2023-01-01T00:28:20;13.52;;;7.00;;
30888;SDS011;51092;50.874;7.024;2023-01-01T00:29:22;10.32;;;6.35;;
30888;SDS011;51092;50.874;7.024;2023-01-01T00:30:24;14.80;;;7.03;;
30888;SDS011;51092;50.874;7.024;2023-01-01T00:31:28;12.30;;;6.88;;
30888;SDS011;51092;50.874;7.024;2023-01-01T00:32:30;12.88;;;6.53;;
30888;SDS011;51092;50.874;7.024;2023-01-01T00:33:32;11.90;;;6.95;;
30888;SDS011;51092;50.874;7.024;2023-01-01T00:34:36;13.80;;;6.13;;
30888;SDS011;51092;50.874;7.024;2023-01-01T00:35:37;11.88;;;6.57;;
30888;SDS011;51092;50.874;7.024;2023-01-01T00:36:40;15.25;;;6.65;;
30888;SDS011;51092;50.874;7.024;2023-01-01T00:37:42;14.55;;;6.25;;
30888;SDS011;51092;50.874;7.024;2023-01-01T00:38:45;11.55;;;5.20;;
30888;SDS011;51092;50.874;7.024;2023-01-01T00:39:47;9.25;;;4.63;;
30888;SDS011;51092;50.874;7.024;2023-01-01T00:40:50;13.70;;;4.43;;
30888;SDS011;51092;50.874;7.024;2023-01-01T00:41:51;7.78;;;3.83;;
30888;SDS011;51092;50.874;7.024;2023-01-01T00:42:54;14.02;;;4.15;;
30888;SDS011;51092;50.874;7.024;2023-01-01T00:43:56;10.73;;;4.28;;
30888;SDS011;51092;50.874;7.024;2023-01-01T00:44:58;9.70;;;4.18;;
30888;SDS011;51092;50.874;7.024;2023-01-01T00:46:00;6.20;;;3.17;;
30888;SDS011;51092;50.874;7.024;2023-01-01T00:47:03;7.65;;;3.05;;
30888;SDS011;51092;50.874;7.024;2023-01-01T00:48:04;3.85;;;2.45;;
30888;SDS011;51092;50.874;7.024;2023-01-01T00:49:07;5.50;;;2.00;;
30888;SDS011;51092;50.874;7.024;2023-01-01T00:50:09;5.22;;;1.95;;
30888;SDS011;51092;50.874;7.024;2023-01-01T00:51:11;7.97;;;1.63;;
30888;SDS011;51092;50.874;7.024;2023-01-01T00:52:12;9.23;;;2.75;;
30888;SDS011;51092;50.874;7.024;2023-01-01T00:53:15;7.20;;;2.83;;
30888;SDS011;51092;50.874;7.024;2023-01-01T00:54:16;7.80;;;2.90;;
30888;SDS011;51092;50.874;7.024;2023-01-01T00:55:19;6.97;;;2.10;;
30888;SDS011;51092;50.874;7.024;2023-01-01T00:56:27;5.65;;;1.95;;
30888;SDS011;51092;50.874;7.024;2023-01-01T00:57:28;8.60;;;1.90;;
30888;SDS011;51092;50.874;7.024;2023-01-01T00:58:31;6.75;;;2.50;;
30888;SDS011;51092;50.874;7.024;2023-01-01T00:59:33;4.63;;;1.92;;
30888;SDS011;51092;50.874;7.024;2023-01-01T01:00:35;7.25;;;2.38;;
30888;SDS011;51092;50.874;7.024;2023-01-01T01:01:38;4.45;;;2.13;;
30888;SDS011;51092;50.874;7.024;2023-01-01T01:02:40;3.95;;;2.10;;
30888;SDS011;51092;50.874;7.024;2023-01-01T01:03:43;7.25;;;2.17;;
30888;SDS011;51092;50.874;7.024;2023-01-01T01:04:44;7.43;;;1.98;;
30888;SDS011;51092;50.874;7.024;2023-01-01T01:05:48;4.47;;;1.60;;
30888;SDS011;51092;50.874;7.024;2023-01-01T01:06:50;5.53;;;2.10;;
30888;SDS011;51092;50.874;7.024;2023-01-01T01:07:52;8.38;;;2.30;;
30888;SDS011;51092;50.874;7.024;2023-01-01T01:08:55;13.95;;;2.25;;
30888;SDS011;51092;50.874;7.024;2023-01-01T01:09:56;5.55;;;1.85;;
30888;SDS011;51092;50.874;7.024;2023-01-01T01:11:03;7.18;;;2.33;;
30888;SDS011;51092;50.874;7.024;2023-01-01T01:12:05;5.47;;;2.10;;
30888;SDS011;51092;50.874;7.024;2023-01-01T01:13:08;6.97;;;2.95;;
30888;SDS011;51092;50.874;7.024;2023-01-01T01:14:09;6.05;;;3.72;;
30888;SDS011;51092;50.874;7.024;2023-01-01T01:15:12;7.40;;;2.95;;
30888;SDS011;51092;50.874;7.024;2023-01-01T01:16:14;7.75;;;2.60;;
30888;SDS011;51092;50.874;7.024;2023-01-01T01:17:18;5.93;;;2.50;;
30888;SDS011;51092;50.874;7.024;2023-01-01T01:18:19;2.67;;;1.63;;
30888;SDS011;51092;50.874;7.024;2023-01-01T01:19:22;7.10;;;2.03;;
30888;SDS011;51092;50.874;7.024;2023-01-01T01:20:27;4.50;;;2.35;;
30888;SDS011;51092;50.874;7.024;2023-01-01T01:21:30;5.90;;;1.88;;
30888;SDS011;51092;50.874;7.024;2023-01-01T01:22:34;5.93;;;1.60;;
30888;SDS011;51092;50.874;7.024;2023-01-01T01:23:35;5.38;;;1.83;;
30888;SDS011;51092;50.874;7.024;2023-01-01T01:24:38;7.22;;;2.30;;
30888;SDS011;51092;50.874;7.024;2023-01-01T01:25:40;5.43;;;1.67;;
30888;SDS011;51092;50.874;7.024;2023-01-01T01:26:42;4.68;;;2.65;;
30888;SDS011;51092;50.874;7.024;2023-01-01T01:27:44;4.25;;;2.00;;
30888;SDS011;51092;50.874;7.024;2023-01-01T01:28:46;7.05;;;1.88;;
30888;SDS011;51092;50.874;7.024;2023-01-01T01:29:48;2.47;;;1.63;;
30888;SDS011;51092;50.874;7.024;2023-01-01T01:30:51;6.07;;;1.95;;
30888;SDS011;51092;50.874;7.024;2023-01-01T01:31:52;6.93;;;2.22;;
30888;SDS011;51092;50.874;7.024;2023-01-01T01:32:55;3.95;;;2.60;;
30888;SDS011;51092;50.874;7.024;2023-01-01T01:33:56;4.85;;;2.10;;
30888;SDS011;51092;50.874;7.024;2023-01-01T01:34:58;5.30;;;1.90;;
30888;SDS011;51092;50.874;7.024;2023-01-01T01:36:00;4.88;;;2.22;;
30888;SDS011;51092;50.874;7.024;2023-01-01T01:37:02;2.90;;;1.65;;
30888;SDS011;51092;50.874;7.024;2023-01-01T01:38:06;4.75;;;1.80;;
30888;SDS011;51092;50.874;7.024;2023-01-01T01:39:08;9.02;;;2.25;;
30888;SDS011;51092;50.874;7.024;2023-01-01T01:40:11;3.22;;;1.50;;
30888;SDS011;51092;50.874;7.024;2023-01-01T01:41:16;2.08;;;1.30;;
30888;SDS011;51092;50.874;7.024;2023-01-01T01:42:20;5.85;;;2.20;;
30888;SDS011;51092;50.874;7.024;2023-01-01T01:43:23;4.25;;;1.77;;
30888;SDS011;51092;50.874;7.024;2023-01-01T01:45:55;5.93;;;2.70;;
30888;SDS011;51092;50.874;7.024;2023-01-01T01:47:02;5.30;;;1.70;;
30888;SDS011;51092;50.874;7.024;2023-01-01T01:48:04;1.95;;;1.50;;
30888;SDS011;51092;50.874;7.024;2023-01-01T01:49:09;4.95;;;2.00;;
30888;SDS011;51092;50.874;7.024;2023-01-01T01:50:16;4.30;;;1.80;;
30888;SDS011;51092;50.874;7.024;2023-01-01T01:51:26;2.72;;;1.48;;
30888;SDS011;51092;50.874;7.024;2023-01-01T01:52:32;6.40;;;1.52;;
30888;SDS011;51092;50.874;7.024;2023-01-01T01:53:37;3.40;;;1.83;;
30888;SDS011;51092;50.874;7.024;2023-01-01T01:54:43;4.03;;;1.60;;
30888;SDS011;51092;50.874;7.024;2023-01-01T01:55:46;4.55;;;1.77;;
30888;SDS011;51092;50.874;7.024;2023-01-01T01:56:53;3.65;;;1.75;;
30888;SDS011;51092;50.874;7.024;2023-01-01T01:57:57;2.55;;;1.35;;
30888;SDS011;51092;50.874;7.024;2023-01-01T01:59:00;6.53;;;2.05;;
30888;SDS011;51092;50.874;7.024;2023-01-01T02:00:02;2.53;;;1.65;;
30888;SDS011;51092;50.874;7.024;2023-01-01T02:01:05;6.20;;;2.00;;
30888;SDS011;51092;50.874;7.024;2023-01-01T02:02:09;5.47;;;1.83;;
30888;SDS011;51092;50.874;7.024;2023-01-01T02:03:17;3.35;;;1.55;;
30888;SDS011;51092;50.874;7.024;2023-01-01T02:04:23;5.15;;;1.60;;
30888;SDS011;51092;50.874;7.024;2023-01-01T02:05:24;7.50;;;1.70;;
30888;SDS011;51092;50.874;7.024;2023-01-01T02:06:28;5.05;;;2.00;;
30888;SDS011;51092;50.874;7.024;2023-01-01T02:07:33;4.30;;;1.73;;
30888;SDS011;51092;50.874;7.024;2023-01-01T02:08:37;3.58;;;1.80;;
30888;SDS011;51092;50.874;7.024;2023-01-01T02:09:39;2.60;;;1.42;;
30888;SDS011;51092;50.874;7.024;2023-01-01T02:10:41;4.32;;;1.60;;
30888;SDS011;51092;50.874;7.024;2023-01-01T02:11:44;5.78;;;1.80;;
30888;SDS011;51092;50.874;7.024;2023-01-01T02:12:45;5.40;;;2.13;;
30888;SDS011;51092;50.874;7.024;2023-01-01T02:13:48;5.15;;;1.63;;
30888;SDS011;51092;50.874;7.024;2023-01-01T02:14:54;8.05;;;1.88;;
30888;SDS011;51092;50.874;7.024;2023-01-01T02:15:57;7.40;;;2.33;;
30888;SDS011;51092;50.874;7.024;2023-01-01T02:17:05;2.25;;;1.52;;
30888;SDS011;51092;50.874;7.024;2023-01-01T02:18:10;4.72;;;1.20;;
30888;SDS011;51092;50.874;7.024;2023-01-01T02:19:16;5.10;;;1.98;;
30888;SDS011;51092;50.874;7.024;2023-01-01T02:20:34;4.95;;;1.90;;
30888;SDS011;51092;50.874;7.024;2023-01-01T02:21:49;6.53;;;2.03;;
30888;SDS011;51092;50.874;7.024;2023-01-01T02:23:15;2.10;;;1.27;;
30888;SDS011;51092;50.874;7.024;2023-01-01T02:24:41;4.80;;;1.45;;
30888;SDS011;51092;50.874;7.024;2023-01-01T02:26:05;4.00;;;1.70;;
30888;SDS011;51092;50.874;7.024;2023-01-01T02:27:26;1.73;;;1.20;;
30888;SDS011;51092;50.874;7.024;2023-01-01T02:28:42;2.63;;;1.35;;
30888;SDS011;51092;50.874;7.024;2023-01-01T02:29:53;2.67;;;1.30;;
30888;SDS011;51092;50.874;7.024;2023-01-01T02:30:58;4.55;;;1.50;;
30888;SDS011;51092;50.874;7.024;2023-01-01T02:32:02;4.10;;;1.90;;
30888;SDS011;51092;50.874;7.024;2023-01-01T02:33:08;2.85;;;1.35;;
30888;SDS011;51092;50.874;7.024;2023-01-01T02:34:15;3.65;;;1.58;;
30888;SDS011;51092;50.874;7.024;2023-01-01T02:35:21;4.88;;;1.25;;
30888;SDS011;51092;50.874;7.024;2023-01-01T02:36:37;3.70;;;1.60;;
30888;SDS011;51092;50.874;7.024;2023-01-01T02:37:43;3.47;;;1.63;;
30888;SDS011;51092;50.874;7.024;2023-01-01T02:38:45;6.25;;;1.52;;
30888;SDS011;51092;50.874;7.024;2023-01-01T02:39:51;4.95;;;1.67;;
30888;SDS011;51092;50.874;7.024;2023-01-01T02:40:56;3.85;;;1.60;;
30888;SDS011;51092;50.874;7.024;2023-01-01T02:42:01;2.80;;;1.23;;
30888;SDS011;51092;50.874;7.024;2023-01-01T02:43:06;2.65;;;1.35;;
30888;SDS011;51092;50.874;7.024;2023-01-01T02:44:09;3.58;;;1.67;;
30888;SDS011;51092;50.874;7.024;2023-01-01T02:45:15;3.85;;;1.73;;
30888;SDS011;51092;50.874;7.024;2023-01-01T02:46:18;2.88;;;1.63;;
30888;SDS011;51092;50.874;7.024;2023-01-01T02:47:20;5.07;;;1.83;;
30888;SDS011;51092;50.874;7.024;2023-01-01T02:48:36;2.60;;;1.05;;
30888;SDS011;51092;50.874;7.024;2023-01-01T02:49:43;4.88;;;2.17;;
30888;SDS011;51092;50.874;7.024;2023-01-01T02:50:51;2.60;;;1.33;;
30888;SDS011;51092;50.874;7.024;2023-01-01T02:51:57;6.68;;;1.35;;
30888;SDS011;51092;50.874;7.024;2023-01-01T02:53:06;4.38;;;1.67;;
30888;SDS011;51092;50.874;7.024;2023-01-01T02:54:17;3.33;;;1.20;;
30888;SDS011;51092;50.874;7.024;2023-01-01T02:55:32;2.30;;;1.45;;
30888;SDS011;51092;50.874;7.024;2023-01-01T02:56:42;4.93;;;1.58;;
30888;SDS011;51092;50.874;7.024;2023-01-01T02:57:48;5.15;;;1.27;;
30888;SDS011;51092;50.874;7.024;2023-01-01T02:58:56;4.93;;;2.00;;
30888;SDS011;51092;50.874;7.024;2023-01-01T03:00:27;3.95;;;1.50;;
30888;SDS011;51092;50.874;7.024;2023-01-01T03:01:31;3.05;;;1.33;;
30888;SDS011;51092;50.874;7.024;2023-01-01T03:02:40;3.72;;;1.25;;
30888;SDS011;51092;50.874;7.024;2023-01-01T03:03:50;3.97;;;1.70;;
30888;SDS011;51092;50.874;7.024;2023-01-01T03:05:06;4.32;;;1.20;;
30888;SDS011;51092;50.874;7.024;2023-01-01T03:06:15;4.93;;;1.73;;
30888;SDS011;51092;50.874;7.024;2023-01-01T03:07:25;3.42;;;1.40;;
30888;SDS011;51092;50.874;7.024;2023-01-01T03:08:37;7.55;;;2.03;;
30888;SDS011;51092;50.874;7.024;2023-01-01T03:09:46;4.05;;;1.30;;
30888;SDS011;51092;50.874;7.024;2023-01-01T03:10:57;4.15;;;1.40;;
30888;SDS011;51092;50.874;7.024;2023-01-01T03:12:05;7.90;;;2.00;;
30888;SDS011;51092;50.874;7.024;2023-01-01T03:13:14;6.35;;;1.58;;
30888;SDS011;51092;50.874;7.024;2023-01-01T03:14:22;9.27;;;1.70;;
30888;SDS011;51092;50.874;7.024;2023-01-01T03:15:32;4.05;;;1.63;;
30888;SDS011;51092;50.874;7.024;2023-01-01T03:16:39;7.22;;;1.35;;
30888;SDS011;51092;50.874;7.024;2023-01-01T03:17:48;3.22;;;1.17;;
30888;SDS011;51092;50.874;7.024;2023-01-01T03:18:54;4.75;;;1.30;;
30888;SDS011;51092;50.874;7.024;2023-01-01T03:20:11;4.95;;;1.60;;
30888;SDS011;51092;50.874;7.024;2023-01-01T03:21:23;5.25;;;1.50;;
30888;SDS011;51092;50.874;7.024;2023-01-01T03:22:25;3.05;;;1.38;;
30888;SDS011;51092;50.874;7.024;2023-01-01T03:23:32;4.22;;;1.80;;
30888;SDS011;51092;50.874;7.024;2023-01-01T03:24:39;5.07;;;2.08;;
30888;SDS011;51092;50.874;7.024;2023-01-01T03:25:45;7.85;;;2.08;;
30888;SDS011;51092;50.874;7.024;2023-01-01T03:26:51;5.90;;;1.65;;
30888;SDS011;51092;50.874;7.024;2023-01-01T03:27:57;4.82;;;1.20;;
30888;SDS011;51092;50.874;7.024;2023-01-01T03:29:03;4.07;;;1.30;;
30888;SDS011;51092;50.874;7.024;2023-01-01T03:30:06;5.70;;;1.55;;
30888;SDS011;51092;50.874;7.024;2023-01-01T03:31:12;4.28;;;1.52;;
30888;SDS011;51092;50.874;7.024;2023-01-01T03:32:19;4.95;;;1.65;;
30888;SDS011;51092;50.874;7.024;2023-01-01T03:33:48;4.95;;;1.42;;
30888;SDS011;51092;50.874;7.024;2023-01-01T03:34:53;4.38;;;1.73;;
30888;SDS011;51092;50.874;7.024;2023-01-01T03:35:57;5.95;;;1.58;;
30888;SDS011;51092;50.874;7.024;2023-01-01T03:37:02;2.75;;;1.42;;
30888;SDS011;51092;50.874;7.024;2023-01-01T03:38:09;4.85;;;1.25;;
30888;SDS011;51092;50.874;7.024;2023-01-01T03:39:17;3.58;;;1.70;;
30888;SDS011;51092;50.874;7.024;2023-01-01T03:40:21;3.13;;;1.88;;
30888;SDS011;51092;50.874;7.024;2023-01-01T03:41:26;6.40;;;1.27;;
30888;SDS011;51092;50.874;7.024;2023-01-01T03:42:35;4.70;;;1.55;;
30888;SDS011;51092;50.874;7.024;2023-01-01T03:43:43;3.85;;;1.58;;
30888;SDS011;51092;50.874;7.024;2023-01-01T03:44:49;6.78;;;1.48;;
30888;SDS011;51092;50.874;7.024;2023-01-01T03:45:57;6.13;;;1.50;;
30888;SDS011;51092;50.874;7.024;2023-01-01T03:47:01;4.50;;;1.60;;
30888;SDS011;51092;50.874;7.024;2023-01-01T03:48:09;2.45;;;1.77;;
30888;SDS011;51092;50.874;7.024;2023-01-01T03:49:11;2.35;;;1.35;;
30888;SDS011;51092;50.874;7.024;2023-01-01T03:50:15;4.80;;;1.65;;
30888;SDS011;51092;50.874;7.024;2023-01-01T03:51:20;6.57;;;1.65;;
30888;SDS011;51092;50.874;7.024;2023-01-01T03:52:31;8.85;;;1.80;;
30888;SDS011;51092;50.874;7.024;2023-01-01T03:53:42;1.90;;;1.20;;
30888;SDS011;51092;50.874;7.024;2023-01-01T03:54:44;3.97;;;1.80;;
30888;SDS011;51092;50.874;7.024;2023-01-01T03:55:55;4.00;;;1.67;;
30888;SDS011;51092;50.874;7.024;2023-01-01T03:57:08;1.83;;;0.98;;
30888;SDS011;51092;50.874;7.024;2023-01-01T03:58:16;7.75;;;1.88;;
30888;SDS011;51092;50.874;7.024;2023-01-01T03:59:23;3.97;;;1.27;;
30888;SDS011;51092;50.874;7.024;2023-01-01T04:00:31;3.83;;;1.95;;
30888;SDS011;51092;50.874;7.024;2023-01-01T04:01:36;4.63;;;1.23;;
30888;SDS011;51092;50.874;7.024;2023-01-01T04:02:44;7.30;;;1.48;;
30888;SDS011;51092;50.874;7.024;2023-01-01T04:03:51;5.93;;;1.40;;
30888;SDS011;51092;50.874;7.024;2023-01-01T04:04:53;4.05;;;1.40;;
30888;SDS011;51092;50.874;7.024;2023-01-01T04:05:57;4.13;;;1.83;;
30888;SDS011;51092;50.874;7.024;2023-01-01T04:06:59;5.65;;;1.95;;
30888;SDS011;51092;50.874;7.024;2023-01-01T04:08:01;4.03;;;1.30;;
30888;SDS011;51092;50.874;7.024;2023-01-01T04:09:04;2.88;;;1.10;;
30888;SDS011;51092;50.874;7.024;2023-01-01T04:10:11;5.20;;;1.60;;
30888;SDS011;51092;50.874;7.024;2023-01-01T04:11:21;6.80;;;1.70;;
30888;SDS011;51092;50.874;7.024;2023-01-01T04:12:46;3.63;;;2.00;;
30888;SDS011;51092;50.874;7.024;2023-01-01T04:13:50;10.00;;;1.67;;
30888;SDS011;51092;50.874;7.024;2023-01-01T04:14:54;8.00;;;1.83;;
30888;SDS011;51092;50.874;7.024;2023-01-01T04:15:56;3.60;;;1.20;;
30888;SDS011;51092;50.874;7.024;2023-01-01T04:16:58;3.33;;;1.67;;
30888;SDS011;51092;50.874;7.024;2023-01-01T04:18:03;5.13;;;1.85;;
30888;SDS011;51092;50.874;7.024;2023-01-01T04:19:04;8.95;;;1.38;;
30888;SDS011;51092;50.874;7.024;2023-01-01T04:20:07;4.22;;;1.73;;
30888;SDS011;51092;50.874;7.024;2023-01-01T04:21:08;3.80;;;1.55;;
30888;SDS011;51092;50.874;7.024;2023-01-01T04:22:12;4.80;;;1.45;;
30888;SDS011;51092;50.874;7.024;2023-01-01T04:23:13;6.40;;;2.10;;
30888;SDS011;51092;50.874;7.024;2023-01-01T04:24:16;5.63;;;1.55;;
30888;SDS011;51092;50.874;7.024;2023-01-01T04:25:18;4.07;;;1.20;;
30888;SDS011;51092;50.874;7.024;2023-01-01T04:26:20;10.27;;;1.70;;
30888;SDS011;51092;50.874;7.024;2023-01-01T04:27:21;9.57;;;2.00;;
30888;SDS011;51092;50.874;7.024;2023-01-01T04:28:24;7.05;;;1.60;;
30888;SDS011;51092;50.874;7.024;2023-01-01T04:29:25;7.43;;;1.65;;
30888;SDS011;51092;50.874;7.024;2023-01-01T04:30:28;4.25;;;1.40;;
30888;SDS011;51092;50.874;7.024;2023-01-01T04:31:30;4.60;;;1.75;;
30888;SDS011;51092;50.874;7.024;2023-01-01T04:32:32;2.50;;;1.38;;
30888;SDS011;51092;50.874;7.024;2023-01-01T04:33:36;7.22;;;1.90;;
30888;SDS011;51092;50.874;7.024;2023-01-01T04:34:38;6.97;;;1.63;;
30888;SDS011;51092;50.874;7.024;2023-01-01T04:35:40;3.47;;;1.40;;
30888;SDS011;51092;50.874;7.024;2023-01-01T04:36:42;4.82;;;1.52;;
30888;SDS011;51092;50.874;7.024;2023-01-01T04:37:44;3.17;;;1.70;;
30888;SDS011;51092;50.874;7.024;2023-01-01T04:38:47;4.15;;;2.00;;
30888;SDS011;51092;50.874;7.024;2023-01-01T04:39:48;4.15;;;1.80;;
30888;SDS011;51092;50.874;7.024;2023-01-01T04:40:56;6.18;;;1.70;;
30888;SDS011;51092;50.874;7.024;2023-01-01T04:41:58;3.53;;;1.45;;
30888;SDS011;51092;50.874;7.024;2023-01-01T04:43:00;10.02;;;2.75;;
30888;SDS011;51092;50.874;7.024;2023-01-01T04:44:02;7.28;;;1.75;;
30888;SDS011;51092;50.874;7.024;2023-01-01T04:45:05;3.03;;;1.30;;
30888;SDS011;51092;50.874;7.024;2023-01-01T04:46:07;9.30;;;2.25;;
30888;SDS011;51092;50.874;7.024;2023-01-01T04:47:10;5.03;;;1.70;;
30888;SDS011;51092;50.874;7.024;2023-01-01T04:48:11;3.22;;;1.70;;
30888;SDS011;51092;50.874;7.024;2023-01-01T04:49:15;7.20;;;1.60;;
30888;SDS011;51092;50.874;7.024;2023-01-01T04:50:16;6.85;;;2.05;;
30888;SDS011;51092;50.874;7.024;2023-01-01T04:51:20;2.95;;;1.23;;
30888;SDS011;51092;50.874;7.024;2023-01-01T04:52:24;4.35;;;1.50;;
30888;SDS011;51092;50.874;7.024;2023-01-01T04:53:27;7.07;;;1.85;;
30888;SDS011;51092;50.874;7.024;2023-01-01T04:54:30;5.18;;;1.50;;
30888;SDS011;51092;50.874;7.024;2023-01-01T04:55:33;3.90;;;2.13;;
30888;SDS011;51092;50.874;7.024;2023-01-01T04:56:36;7.07;;;1.70;;
30888;SDS011;51092;50.874;7.024;2023-01-01T04:57:39;3.00;;;1.30;;
30888;SDS011;51092;50.874;7.024;2023-01-01T04:58:41;10.00;;;1.80;;
30888;SDS011;51092;50.874;7.024;2023-01-01T04:59:44;5.80;;;1.35;;
30888;SDS011;51092;50.874;7.024;2023-01-01T05:00:47;4.68;;;1.92;;
30888;SDS011;51092;50.874;7.024;2023-01-01T05:01:50;5.53;;;1.77;;
30888;SDS011;51092;50.874;7.024;2023-01-01T05:02:53;4.55;;;1.23;;
30888;SDS011;51092;50.874;7.024;2023-01-01T05:03:54;4.32;;;1.25;;
30888;SDS011;51092;50.874;7.024;2023-01-01T05:04:59;4.78;;;1.58;;
30888;SDS011;51092;50.874;7.024;2023-01-01T05:06:00;4.90;;;1.52;;
30888;SDS011;51092;50.874;7.024;2023-01-01T05:07:03;6.28;;;1.50;;
30888;SDS011;51092;50.874;7.024;2023-01-01T05:08:06;7.18;;;1.92;;
30888;SDS011;51092;50.874;7.024;2023-01-01T05:09:08;4.70;;;1.33;;
30888;SDS011;51092;50.874;7.024;2023-01-01T05:10:11;4.68;;;1.45;;
30888;SDS011;51092;50.874;7.024;2023-01-01T05:11:13;3.58;;;1.40;;
30888;SDS011;51092;50.874;7.024;2023-01-01T05:12:17;5.65;;;1.85;;
30888;SDS011;51092;50.874;7.024;2023-01-01T05:13:18;2.42;;;1.15;;
30888;SDS011;51092;50.874;7.024;2023-01-01T05:14:21;3.78;;;2.05;;
30888;SDS011;51092;50.874;7.024;2023-01-01T05:15:23;5.75;;;1.70;;
30888;SDS011;51092;50.874;7.024;2023-01-01T05:16:26;4.47;;;1.63;;
30888;SDS011;51092;50.874;7.024;2023-01-01T05:17:29;4.20;;;1.65;;
30888;SDS011;51092;50.874;7.024;2023-01-01T05:18:31;7.32;;;2.85;;
30888;SDS011;51092;50.874;7.024;2023-01-01T05:19:33;8.85;;;2.15;;
30888;SDS011;51092;50.874;7.024;2023-01-01T05:20:36;5.50;;;1.48;;
30888;SDS011;51092;50.874;7.024;2023-01-01T05:21:39;4.43;;;1.20;;
30888;SDS011;51092;50.874;7.024;2023-01-01T05:22:41;4.28;;;1.50;;
30888;SDS011;51092;50.874;7.024;2023-01-01T05:23:43;3.00;;;1.48;;
30888;SDS011;51092;50.874;7.024;2023-01-01T05:24:45;4.35;;;1.60;;
30888;SDS011;51092;50.874;7.024;2023-01-01T05:25:48;7.07;;;1.77;;
30888;SDS011;51092;50.874;7.024;2023-01-01T05:26:49;4.55;;;1.58;;
30888;SDS011;51092;50.874;7.024;2023-01-01T05:27:52;7.05;;;1.77;;
30888;SDS011;51092;50.874;7.024;2023-01-01T05:28:54;5.05;;;1.45;;
30888;SDS011;51092;50.874;7.024;2023-01-01T05:29:57;6.30;;;1.50;;
30888;SDS011;51092;50.874;7.024;2023-01-01T05:31:03;5.35;;;1.48;;
30888;SDS011;51092;50.874;7.024;2023-01-01T05:32:06;5.18;;;1.75;;
30888;SDS011;51092;50.874;7.024;2023-01-01T05:33:08;5.25;;;1.33;;
30888;SDS011;51092;50.874;7.024;2023-01-01T05:34:09;5.18;;;1.10;;
30888;SDS011;51092;50.874;7.024;2023-01-01T05:35:11;7.28;;;1.95;;
30888;SDS011;51092;50.874;7.024;2023-01-01T05:36:14;4.18;;;1.75;;
30888;SDS011;51092;50.874;7.024;2023-01-01T05:37:18;3.58;;;1.70;;
30888;SDS011;51092;50.874;7.024;2023-01-01T05:38:19;3.78;;;1.33;;
30888;SDS011;51092;50.874;7.024;2023-01-01T05:39:22;9.05;;;1.98;;
30888;SDS011;51092;50.874;7.024;2023-01-01T05:40:23;8.15;;;1.92;;
30888;SDS011;51092;50.874;7.024;2023-01-01T05:41:26;4.90;;;1.75;;
30888;SDS011;51092;50.874;7.024;2023-01-01T05:42:27;3.20;;;1.25;;
30888;SDS011;51092;50.874;7.024;2023-01-01T05:43:30;3.03;;;1.75;;
30888;SDS011;51092;50.874;7.024;2023-01-01T05:44:31;4.30;;;1.63;;
30888;SDS011;51092;50.874;7.024;2023-01-01T05:45:34;5.50;;;2.15;;
30888;SDS011;51092;50.874;7.024;2023-01-01T05:46:36;3.10;;;1.45;;
30888;SDS011;51092;50.874;7.024;2023-01-01T05:47:38;2.67;;;1.38;;
30888;SDS011;51092;50.874;7.024;2023-01-01T05:48:40;4.50;;;1.83;;
30888;SDS011;51092;50.874;7.024;2023-01-01T05:49:43;4.90;;;1.73;;
30888;SDS011;51092;50.874;7.024;2023-01-01T05:50:44;2.38;;;1.23;;
30888;SDS011;51092;50.874;7.024;2023-01-01T05:51:48;5.90;;;1.73;;
30888;SDS011;51092;50.874;7.024;2023-01-01T05:52:49;2.28;;;1.42;;
30888;SDS011;51092;50.874;7.024;2023-01-01T05:53:52;5.15;;;1.70;;
30888;SDS011;51092;50.874;7.024;2023-01-01T05:54:54;4.45;;;1.70;;
30888;SDS011;51092;50.874;7.024;2023-01-01T05:55:58;7.60;;;1.65;;
30888;SDS011;51092;50.874;7.024;2023-01-01T05:56:59;8.80;;;2.05;;
30888;SDS011;51092;50.874;7.024;2023-01-01T05:58:02;4.82;;;1.80;;
30888;SDS011;51092;50.874;7.024;2023-01-01T05:59:03;4.03;;;1.40;;
30888;SDS011;51092;50.874;7.024;2023-01-01T06:00:06;2.72;;;1.33;;
30888;SDS011;51092;50.874;7.024;2023-01-01T06:01:09;4.57;;;1.77;;
30888;SDS011;51092;50.874;7.024;2023-01-01T06:02:13;5.43;;;2.05;;
30888;SDS011;51092;50.874;7.024;2023-01-01T06:03:15;5.75;;;1.60;;
30888;SDS011;51092;50.874;7.024;2023-01-01T06:04:17;6.55;;;2.00;;
30888;SDS011;51092;50.874;7.024;2023-01-01T06:05:22;4.78;;;1.75;;
30888;SDS011;51092;50.874;7.024;2023-01-01T06:06:25;4.53;;;1.63;;
30888;SDS011;51092;50.874;7.024;2023-01-01T06:07:30;5.13;;;1.95;;
30888;SDS011;51092;50.874;7.024;2023-01-01T06:08:32;4.10;;;1.30;;
30888;SDS011;51092;50.874;7.024;2023-01-01T06:09:34;4.40;;;1.45;;
30888;SDS011;51092;50.874;7.024;2023-01-01T06:10:36;7.32;;;1.90;;
30888;SDS011;51092;50.874;7.024;2023-01-01T06:11:39;5.43;;;1.90;;
30888;SDS011;51092;50.874;7.024;2023-01-01T06:12:40;6.75;;;2.17;;
30888;SDS011;51092;50.874;7.024;2023-01-01T06:13:42;3.25;;;1.42;;
30888;SDS011;51092;50.874;7.024;2023-01-01T06:14:44;6.38;;;1.77;;
30888;SDS011;51092;50.874;7.024;2023-01-01T06:15:51;4.78;;;1.38;;
30888;SDS011;51092;50.874;7.024;2023-01-01T06:16:53;6.93;;;1.40;;
30888;SDS011;51092;50.874;7.024;2023-01-01T06:17:56;7.38;;;2.40;;
30888;SDS011;51092;50.874;7.024;2023-01-01T06:18:57;3.05;;;1.58;;
30888;SDS011;51092;50.874;7.024;2023-01-01T06:20:00;3.60;;;1.23;;
30888;SDS011;51092;50.874;7.024;2023-01-01T06:21:02;3.97;;;1.73;;
30888;SDS011;51092;50.874;7.024;2023-01-01T06:22:08;3.83;;;1.65;;
30888;SDS011;51092;50.874;7.024;2023-01-01T06:23:10;6.65;;;1.70;;
30888;SDS011;51092;50.874;7.024;2023-01-01T06:24:13;6.43;;;1.83;;
30888;SDS011;51092;50.874;7.024;2023-01-01T06:25:17;5.28;;;1.80;;
30888;SDS011;51092;50.874;7.024;2023-01-01T06:26:20;3.45;;;1.88;;
30888;SDS011;51092;50.874;7.024;2023-01-01T06:27:23;4.85;;;1.63;;
30888;SDS011;51092;50.874;7.024;2023-01-01T06:28:25;5.43;;;1.60;;
30888;SDS011;51092;50.874;7.024;2023-01-01T06:29:26;2.90;;;1.80;;